sensor_id;sensor_type;location;lat;lon;timestamp;pressure;altitude;pressure_sealevel;temperature;humidity
35908;BME280;22003;50.320;8.054;2022-08-25T04:01:52;99816.06;;;14.62;85.47
35908;BME280;22003;50.320;8.054;2022-08-25T04:04:18;99806.09;;;14.25;88.17
35908;BME280;22003;50.320;8.054;2022-08-25T04:06:44;99813.94;;;14.26;88.29
35908;BME280;22003;50.320;8.054;2022-08-25T04:09:10;99818.75;;;14.23;89.76
35908;BME280;22003;50.320;8.054;2022-08-25T04:11:36;99814.69;;;13.99;90.10
35908;BME280;22003;50.320;8.054;2022-08-25T04:14:02;99808.78;;;14.06;88.66
35908;BME280;22003;50.320;8.054;2022-08-25T04:16:31;99818.31;;;14.27;87.34
35908;BME280;22003;50.320;8.054;2022-08-25T04:18:59;99816.38;;;14.10;87.69
35908;BME280;22003;50.320;8.054;2022-08-25T04:21:25;99726.78;;;13.51;88.48
35908;BME280;22003;50.320;8.054;2022-08-25T04:23:52;99817.03;;;14.32;88.27
35908;BME280;22003;50.320;8.054;2022-08-25T04:26:21;99814.78;;;14.46;86.39
35908;BME280;22003;50.320;8.054;2022-08-25T04:28:47;99823.91;;;14.24;87.08
35908;BME280;22003;50.320;8.054;2022-08-25T04:31:17;99810.03;;;14.31;88.24
35908;BME280;22003;50.320;8.054;2022-08-25T04:33:42;99774.00;;;13.88;88.86
35908;BME280;22003;50.320;8.054;2022-08-25T04:36:09;99774.56;;;13.72;89.13
35908;BME280;22003;50.320;8.054;2022-08-25T04:38:37;99822.53;;;14.01;90.81
35908;BME280;22003;50.320;8.054;2022-08-25T04:41:04;99792.09;;;14.04;90.45
35908;BME280;22003;50.320;8.054;2022-08-25T04:43:31;99828.56;;;14.13;89.42
35908;BME280;22003;50.320;8.054;2022-08-25T04:45:57;99814.09;;;14.15;88.33
35908;BME280;22003;50.320;8.054;2022-08-25T04:48:48;99823.50;;;14.19;88.96
35908;BME280;22003;50.320;8.054;2022-08-25T04:51:17;99815.66;;;14.27;86.98
35908;BME280;22003;50.320;8.054;2022-08-25T04:53:43;99824.06;;;14.33;87.05
35908;BME280;22003;50.320;8.054;2022-08-25T04:56:11;99823.78;;;14.36;87.05
35908;BME280;22003;50.320;8.054;2022-08-25T04:58:37;99831.06;;;14.53;87.19
35908;BME280;22003;50.320;8.054;2022-08-25T05:01:05;99821.06;;;14.74;84.65
35908;BME280;22003;50.320;8.054;2022-08-25T05:03:31;99816.81;;;14.82;84.61
35908;BME280;22003;50.320;8.054;2022-08-25T05:05:57;99830.69;;;14.95;86.57
35908;BME280;22003;50.320;8.054;2022-08-25T05:08:22;99765.00;;;14.47;86.18
35908;BME280;22003;50.320;8.054;2022-08-25T05:10:48;99827.25;;;15.12;86.01
35908;BME280;22003;50.320;8.054;2022-08-25T05:13:14;99830.59;;;15.24;84.03
35908;BME280;22003;50.320;8.054;2022-08-25T05:15:39;99828.66;;;15.44;82.80
35908;BME280;22003;50.320;8.054;2022-08-25T05:18:18;99830.97;;;15.29;84.77
35908;BME280;22003;50.320;8.054;2022-08-25T05:20:44;99789.91;;;15.12;84.81
35908;BME280;22003;50.320;8.054;2022-08-25T05:23:10;99765.78;;;15.04;86.03
35908;BME280;22003;50.320;8.054;2022-08-25T05:25:35;99757.28;;;15.18;86.31
35908;BME280;22003;50.320;8.054;2022-08-25T05:28:01;99819.34;;;15.75;85.46
35908;BME280;22003;50.320;8.054;2022-08-25T05:30:27;99822.13;;;15.83;85.18
35908;BME280;22003;50.320;8.054;2022-08-25T05:32:52;99822.97;;;15.84;85.06
35908;BME280;22003;50.320;8.054;2022-08-25T05:35:18;99788.78;;;15.60;84.49
35908;BME280;22003;50.320;8.054;2022-08-25T05:37:44;99823.56;;;16.14;83.11
35908;BME280;22003;50.320;8.054;2022-08-25T05:40:09;99828.63;;;16.17;83.26
35908;BME280;22003;50.320;8.054;2022-08-25T05:42:35;99718.28;;;15.53;84.38
35908;BME280;22003;50.320;8.054;2022-08-25T05:45:01;99801.66;;;16.10;84.76
35908;BME280;22003;50.320;8.054;2022-08-25T05:47:26;99811.63;;;16.26;84.56
35908;BME280;22003;50.320;8.054;2022-08-25T05:49:51;99782.81;;;16.37;82.86
35908;BME280;22003;50.320;8.054;2022-08-25T05:52:17;99719.41;;;16.04;83.51
35908;BME280;22003;50.320;8.054;2022-08-25T05:54:42;99820.13;;;16.65;83.63
35908;BME280;22003;50.320;8.054;2022-08-25T05:57:07;99810.38;;;16.74;83.53
35908;BME280;22003;50.320;8.054;2022-08-25T05:59:34;99816.66;;;16.91;82.99
35908;BME280;22003;50.320;8.054;2022-08-25T06:01:59;99770.66;;;16.69;82.08
35908;BME280;22003;50.320;8.054;2022-08-25T06:04:43;99812.88;;;17.01;81.61
35908;BME280;22003;50.320;8.054;2022-08-25T06:07:09;99816.75;;;17.15;81.25
35908;BME280;22003;50.320;8.054;2022-08-25T06:09:37;99807.13;;;17.30;80.82
35908;BME280;22003;50.320;8.054;2022-08-25T06:12:03;99814.69;;;17.35;77.67
35908;BME280;22003;50.320;8.054;2022-08-25T06:14:28;99787.03;;;17.26;77.68
35908;BME280;22003;50.320;8.054;2022-08-25T06:16:53;99804.63;;;17.79;76.43
35908;BME280;22003;50.320;8.054;2022-08-25T06:19:19;99814.53;;;17.87;76.95
35908;BME280;22003;50.320;8.054;2022-08-25T06:21:45;99807.66;;;17.92;75.55
35908;BME280;22003;50.320;8.054;2022-08-25T06:24:10;99747.19;;;17.74;76.83
35908;BME280;22003;50.320;8.054;2022-08-25T06:26:36;99798.63;;;18.10;75.55
35908;BME280;22003;50.320;8.054;2022-08-25T06:29:02;99798.16;;;18.23;75.11
35908;BME280;22003;50.320;8.054;2022-08-25T06:31:28;99792.75;;;18.80;73.21
35908;BME280;22003;50.320;8.054;2022-08-25T06:33:53;99790.75;;;18.73;74.23
35908;BME280;22003;50.320;8.054;2022-08-25T06:36:19;99790.91;;;18.88;73.92
35908;BME280;22003;50.320;8.054;2022-08-25T06:38:45;99737.59;;;18.61;72.90
35908;BME280;22003;50.320;8.054;2022-08-25T06:41:11;99789.53;;;18.92;72.98
35908;BME280;22003;50.320;8.054;2022-08-25T06:43:38;99797.81;;;19.22;72.81
35908;BME280;22003;50.320;8.054;2022-08-25T06:46:17;99798.69;;;19.14;72.00
35908;BME280;22003;50.320;8.054;2022-08-25T06:48:43;99800.97;;;19.25;71.78
35908;BME280;22003;50.320;8.054;2022-08-25T06:51:13;99779.03;;;19.22;72.17
35908;BME280;22003;50.320;8.054;2022-08-25T06:53:38;99767.03;;;19.72;70.32
35908;BME280;22003;50.320;8.054;2022-08-25T06:56:04;99790.78;;;19.52;70.87
35908;BME280;22003;50.320;8.054;2022-08-25T06:58:30;99800.84;;;19.89;70.82
35908;BME280;22003;50.320;8.054;2022-08-25T07:00:55;99759.69;;;19.66;71.79
35908;BME280;22003;50.320;8.054;2022-08-25T07:03:21;99797.44;;;19.95;70.87
35908;BME280;22003;50.320;8.054;2022-08-25T07:05:54;99785.97;;;20.24;70.35
35908;BME280;22003;50.320;8.054;2022-08-25T07:08:20;99790.38;;;20.40;70.00
35908;BME280;22003;50.320;8.054;2022-08-25T07:10:46;99799.25;;;20.64;70.42
35908;BME280;22003;50.320;8.054;2022-08-25T07:13:12;99781.97;;;20.58;69.01
35908;BME280;22003;50.320;8.054;2022-08-25T07:15:38;99787.13;;;20.97;69.03
35908;BME280;22003;50.320;8.054;2022-08-25T07:18:04;99780.44;;;20.93;68.72
35908;BME280;22003;50.320;8.054;2022-08-25T07:20:30;99722.06;;;20.41;69.33
35908;BME280;22003;50.320;8.054;2022-08-25T07:22:56;99780.25;;;20.80;69.07
35908;BME280;22003;50.320;8.054;2022-08-25T07:25:22;99695.78;;;20.66;69.44
35908;BME280;22003;50.320;8.054;2022-08-25T07:27:47;99780.88;;;21.26;67.59
35908;BME280;22003;50.320;8.054;2022-08-25T07:30:12;99784.16;;;21.22;68.67
35908;BME280;22003;50.320;8.054;2022-08-25T07:32:38;99783.78;;;21.40;68.59
35908;BME280;22003;50.320;8.054;2022-08-25T07:35:03;99788.22;;;21.83;66.98
35908;BME280;22003;50.320;8.054;2022-08-25T07:37:54;99778.78;;;21.94;66.70
35908;BME280;22003;50.320;8.054;2022-08-25T07:40:33;99736.94;;;21.41;67.31
35908;BME280;22003;50.320;8.054;2022-08-25T07:43:05;99785.63;;;21.75;68.38
35908;BME280;22003;50.320;8.054;2022-08-25T07:45:33;99778.19;;;22.42;66.77
35908;BME280;22003;50.320;8.054;2022-08-25T07:48:06;99753.16;;;22.26;65.70
35908;BME280;22003;50.320;8.054;2022-08-25T07:50:32;99727.06;;;21.91;66.66
35908;BME280;22003;50.320;8.054;2022-08-25T07:52:58;99775.25;;;22.15;67.42
35908;BME280;22003;50.320;8.054;2022-08-25T07:55:25;99779.31;;;22.54;67.06
35908;BME280;22003;50.320;8.054;2022-08-25T07:57:52;99773.91;;;22.54;67.50
35908;BME280;22003;50.320;8.054;2022-08-25T08:00:17;99765.44;;;22.57;66.52
35908;BME280;22003;50.320;8.054;2022-08-25T08:02:43;99763.31;;;22.80;66.25
35908;BME280;22003;50.320;8.054;2022-08-25T08:05:10;99766.41;;;22.77;66.02
35908;BME280;22003;50.320;8.054;2022-08-25T08:07:35;99766.00;;;23.15;66.38
35908;BME280;22003;50.320;8.054;2022-08-25T08:10:01;99776.28;;;22.91;66.46
35908;BME280;22003;50.320;8.054;2022-08-25T08:12:27;99776.75;;;23.02;66.16
35908;BME280;22003;50.320;8.054;2022-08-25T08:14:53;99773.44;;;23.48;65.64
35908;BME280;22003;50.320;8.054;2022-08-25T08:17:19;99724.63;;;23.62;64.27
35908;BME280;22003;50.320;8.054;2022-08-25T08:19:45;99772.66;;;23.60;65.17
35908;BME280;22003;50.320;8.054;2022-08-25T08:22:12;99769.66;;;24.23;63.85
35908;BME280;22003;50.320;8.054;2022-08-25T08:24:40;99764.22;;;24.03;65.51
35908;BME280;22003;50.320;8.054;2022-08-25T08:27:07;99699.56;;;23.27;65.14
35908;BME280;22003;50.320;8.054;2022-08-25T08:29:34;99763.41;;;23.96;64.76
35908;BME280;22003;50.320;8.054;2022-08-25T08:32:00;99753.63;;;24.08;64.27
35908;BME280;22003;50.320;8.054;2022-08-25T08:34:25;99758.25;;;24.41;64.59
35908;BME280;22003;50.320;8.054;2022-08-25T08:36:51;99765.53;;;24.40;65.65
35908;BME280;22003;50.320;8.054;2022-08-25T08:39:16;99756.72;;;24.85;64.13
35908;BME280;22003;50.320;8.054;2022-08-25T08:50:05;99743.59;;;25.46;63.11
35908;BME280;22003;50.320;8.054;2022-08-25T08:55:37;99740.41;;;25.56;62.27
35908;BME280;22003;50.320;8.054;2022-08-25T08:58:15;99735.44;;;25.46;61.64
35908;BME280;22003;50.320;8.054;2022-08-25T09:00:47;99728.41;;;25.39;62.73
35908;BME280;22003;50.320;8.054;2022-08-25T09:05:49;99720.91;;;25.72;62.22
35908;BME280;22003;50.320;8.054;2022-08-25T09:08:16;99727.91;;;25.55;62.00
35908;BME280;22003;50.320;8.054;2022-08-25T09:11:21;99668.94;;;25.37;62.69
35908;BME280;22003;50.320;8.054;2022-08-25T09:16:57;99695.34;;;26.37;60.07
35908;BME280;22003;50.320;8.054;2022-08-25T09:27:38;99711.38;;;27.06;60.16
35908;BME280;22003;50.320;8.054;2022-08-25T09:30:10;99695.38;;;27.17;58.58
35908;BME280;22003;50.320;8.054;2022-08-25T09:32:46;99688.41;;;26.66;58.54
35908;BME280;22003;50.320;8.054;2022-08-25T09:35:22;99688.34;;;26.72;58.74
35908;BME280;22003;50.320;8.054;2022-08-25T09:38:03;99684.59;;;27.10;58.57
35908;BME280;22003;50.320;8.054;2022-08-25T09:40:31;99572.63;;;26.28;58.10
35908;BME280;22003;50.320;8.054;2022-08-25T09:43:00;99671.09;;;26.97;57.50
35908;BME280;22003;50.320;8.054;2022-08-25T09:45:45;99668.09;;;26.87;58.59
35908;BME280;22003;50.320;8.054;2022-08-25T09:48:23;99658.56;;;27.14;57.21
35908;BME280;22003;50.320;8.054;2022-08-25T09:50:50;99662.72;;;27.17;57.03
35908;BME280;22003;50.320;8.054;2022-08-25T09:53:17;99647.63;;;27.21;57.30
35908;BME280;22003;50.320;8.054;2022-08-25T09:55:45;99617.53;;;27.46;56.70
35908;BME280;22003;50.320;8.054;2022-08-25T09:58:17;99646.94;;;27.37;55.91
35908;BME280;22003;50.320;8.054;2022-08-25T10:00:42;99637.69;;;27.68;55.58
35908;BME280;22003;50.320;8.054;2022-08-25T10:08:28;99631.00;;;28.53;54.52
35908;BME280;22003;50.320;8.054;2022-08-25T10:10:56;99625.44;;;28.48;53.07
35908;BME280;22003;50.320;8.054;2022-08-25T10:13:33;99621.22;;;28.80;53.96
35908;BME280;22003;50.320;8.054;2022-08-25T10:16:19;99626.50;;;28.58;52.33
35908;BME280;22003;50.320;8.054;2022-08-25T10:18:59;99609.91;;;29.74;52.61
35908;BME280;22003;50.320;8.054;2022-08-25T10:21:25;99621.56;;;29.69;50.85
35908;BME280;22003;50.320;8.054;2022-08-25T10:23:52;99604.66;;;28.70;51.52
35908;BME280;22003;50.320;8.054;2022-08-25T10:34:58;99620.44;;;30.16;51.13
35908;BME280;22003;50.320;8.054;2022-08-25T10:37:41;99615.38;;;30.46;49.33
35908;BME280;22003;50.320;8.054;2022-08-25T10:40:22;99600.50;;;30.37;49.05
35908;BME280;22003;50.320;8.054;2022-08-25T10:45:37;99562.31;;;29.70;49.86
35908;BME280;22003;50.320;8.054;2022-08-25T10:48:24;99574.88;;;30.05;49.05
35908;BME280;22003;50.320;8.054;2022-08-25T10:51:09;99592.06;;;29.21;50.03
35908;BME280;22003;50.320;8.054;2022-08-25T10:53:54;99597.50;;;29.66;50.00
35908;BME280;22003;50.320;8.054;2022-08-25T10:56:28;99587.53;;;30.28;49.14
35908;BME280;22003;50.320;8.054;2022-08-25T11:02:26;99575.91;;;28.51;50.34
35908;BME280;22003;50.320;8.054;2022-08-25T11:05:13;99570.56;;;28.56;51.47
35908;BME280;22003;50.320;8.054;2022-08-25T11:07:45;99568.72;;;28.45;51.39
35908;BME280;22003;50.320;8.054;2022-08-25T11:10:30;99569.88;;;28.25;51.68
35908;BME280;22003;50.320;8.054;2022-08-25T11:13:03;99574.53;;;28.36;51.94
35908;BME280;22003;50.320;8.054;2022-08-25T11:15:39;99568.84;;;28.26;53.09
35908;BME280;22003;50.320;8.054;2022-08-25T11:18:12;99567.66;;;28.22;51.23
35908;BME280;22003;50.320;8.054;2022-08-25T11:20:45;99511.53;;;27.51;51.80
35908;BME280;22003;50.320;8.054;2022-08-25T11:23:18;99500.78;;;27.68;52.22
35908;BME280;22003;50.320;8.054;2022-08-25T11:25:58;99570.72;;;28.14;50.98
35908;BME280;22003;50.320;8.054;2022-08-25T11:28:34;99571.56;;;28.14;51.08
35908;BME280;22003;50.320;8.054;2022-08-25T11:31:02;99534.88;;;29.60;49.13
35908;BME280;22003;50.320;8.054;2022-08-25T11:33:29;99530.34;;;30.21;47.34
35908;BME280;22003;50.320;8.054;2022-08-25T11:36:02;99487.09;;;31.16;46.35
35908;BME280;22003;50.320;8.054;2022-08-25T11:41:34;99513.78;;;31.68;43.71
35908;BME280;22003;50.320;8.054;2022-08-25T11:44:25;99558.53;;;32.31;44.32
35908;BME280;22003;50.320;8.054;2022-08-25T11:55:09;99552.41;;;30.19;47.38
35908;BME280;22003;50.320;8.054;2022-08-25T11:57:36;99554.03;;;29.98;46.82
35908;BME280;22003;50.320;8.054;2022-08-25T12:00:07;99515.50;;;29.11;48.09
35908;BME280;22003;50.320;8.054;2022-08-25T12:02:43;99548.97;;;29.23;49.18
35908;BME280;22003;50.320;8.054;2022-08-25T12:07:59;99523.25;;;28.33;49.15
35908;BME280;22003;50.320;8.054;2022-08-25T12:10:57;99537.69;;;28.34;49.44
35908;BME280;22003;50.320;8.054;2022-08-25T12:13:39;99538.56;;;28.63;48.76
35908;BME280;22003;50.320;8.054;2022-08-25T12:16:06;99537.31;;;29.28;47.69
35908;BME280;22003;50.320;8.054;2022-08-25T12:23:29;99504.13;;;30.96;44.70
35908;BME280;22003;50.320;8.054;2022-08-25T12:25:58;99525.00;;;32.09;45.16
35908;BME280;22003;50.320;8.054;2022-08-25T12:31:01;99529.41;;;32.15;43.64
35908;BME280;22003;50.320;8.054;2022-08-25T12:33:46;99505.78;;;30.70;45.71
35908;BME280;22003;50.320;8.054;2022-08-25T12:36:26;99526.94;;;31.34;47.29
35908;BME280;22003;50.320;8.054;2022-08-25T12:38:52;99524.38;;;32.44;43.36
35908;BME280;22003;50.320;8.054;2022-08-25T12:41:27;99514.66;;;32.89;43.71
35908;BME280;22003;50.320;8.054;2022-08-25T12:44:14;99517.94;;;32.23;44.18
35908;BME280;22003;50.320;8.054;2022-08-25T12:46:44;99518.56;;;32.35;44.72
35908;BME280;22003;50.320;8.054;2022-08-25T12:49:31;99515.56;;;31.52;43.85
35908;BME280;22003;50.320;8.054;2022-08-25T12:57:41;99518.06;;;30.94;44.27
35908;BME280;22003;50.320;8.054;2022-08-25T13:00:26;99459.41;;;29.92;45.26
35908;BME280;22003;50.320;8.054;2022-08-25T13:09:03;99513.28;;;30.14;46.13
35908;BME280;22003;50.320;8.054;2022-08-25T13:14:44;99506.22;;;29.79;46.62
35908;BME280;22003;50.320;8.054;2022-08-25T13:17:10;99503.31;;;30.24;45.84
35908;BME280;22003;50.320;8.054;2022-08-25T13:19:36;99455.78;;;29.14;51.84
35908;BME280;22003;50.320;8.054;2022-08-25T13:22:11;99452.91;;;29.21;52.25
35908;BME280;22003;50.320;8.054;2022-08-25T13:24:41;99494.09;;;29.92;47.92
35908;BME280;22003;50.320;8.054;2022-08-25T13:27:09;99493.59;;;29.95;48.78
35908;BME280;22003;50.320;8.054;2022-08-25T13:30:15;99482.53;;;30.23;46.49
35908;BME280;22003;50.320;8.054;2022-08-25T13:32:43;99406.53;;;29.98;46.98
35908;BME280;22003;50.320;8.054;2022-08-25T13:35:13;99484.97;;;30.69;46.02
35908;BME280;22003;50.320;8.054;2022-08-25T13:37:39;99414.06;;;29.69;46.59
35908;BME280;22003;50.320;8.054;2022-08-25T13:40:13;99480.63;;;29.85;47.25
35908;BME280;22003;50.320;8.054;2022-08-25T13:42:42;99479.78;;;29.63;47.63
35908;BME280;22003;50.320;8.054;2022-08-25T13:45:14;99471.16;;;29.71;47.27
35908;BME280;22003;50.320;8.054;2022-08-25T13:47:42;99464.53;;;29.50;50.22
35908;BME280;22003;50.320;8.054;2022-08-25T13:52:59;99459.44;;;30.85;46.23
35908;BME280;22003;50.320;8.054;2022-08-25T13:58:12;99445.44;;;31.83;44.32
35908;BME280;22003;50.320;8.054;2022-08-25T14:00:43;99440.25;;;32.60;45.04
35908;BME280;22003;50.320;8.054;2022-08-25T14:03:48;99400.59;;;32.04;42.18
35908;BME280;22003;50.320;8.054;2022-08-25T14:09:02;99424.75;;;32.18;42.88
35908;BME280;22003;50.320;8.054;2022-08-25T14:11:31;99428.72;;;32.68;43.54
35908;BME280;22003;50.320;8.054;2022-08-25T14:14:06;99398.03;;;33.17;41.86
35908;BME280;22003;50.320;8.054;2022-08-25T14:16:46;99435.03;;;32.83;42.12
35908;BME280;22003;50.320;8.054;2022-08-25T14:19:17;99439.41;;;32.49;42.30
35908;BME280;22003;50.320;8.054;2022-08-25T14:21:44;99422.44;;;33.44;41.20
35908;BME280;22003;50.320;8.054;2022-08-25T14:24:14;99433.13;;;32.79;43.48
35908;BME280;22003;50.320;8.054;2022-08-25T14:26:40;99421.59;;;32.72;43.64
35908;BME280;22003;50.320;8.054;2022-08-25T14:29:05;99427.84;;;32.42;44.17
35908;BME280;22003;50.320;8.054;2022-08-25T14:31:33;99432.31;;;32.78;43.04
35908;BME280;22003;50.320;8.054;2022-08-25T14:34:05;99441.06;;;31.45;43.79
35908;BME280;22003;50.320;8.054;2022-08-25T14:36:33;99433.00;;;32.28;43.41
35908;BME280;22003;50.320;8.054;2022-08-25T14:38:59;99429.28;;;32.80;42.98
35908;BME280;22003;50.320;8.054;2022-08-25T14:41:29;99411.97;;;33.35;43.13
35908;BME280;22003;50.320;8.054;2022-08-25T14:43:54;99419.97;;;33.32;42.48
35908;BME280;22003;50.320;8.054;2022-08-25T14:46:22;99426.00;;;33.24;43.39
35908;BME280;22003;50.320;8.054;2022-08-25T14:48:58;99411.22;;;32.89;42.01
35908;BME280;22003;50.320;8.054;2022-08-25T14:51:24;99415.56;;;33.26;41.89
35908;BME280;22003;50.320;8.054;2022-08-25T14:53:56;99377.97;;;32.70;42.29
35908;BME280;22003;50.320;8.054;2022-08-25T14:56:23;99386.47;;;32.43;42.58
35908;BME280;22003;50.320;8.054;2022-08-25T14:58:48;99359.06;;;32.79;43.61
35908;BME280;22003;50.320;8.054;2022-08-25T15:01:15;99404.63;;;33.16;43.47
35908;BME280;22003;50.320;8.054;2022-08-25T15:03:44;99400.47;;;33.18;42.63
35908;BME280;22003;50.320;8.054;2022-08-25T15:06:13;99348.34;;;33.08;42.80
35908;BME280;22003;50.320;8.054;2022-08-25T15:08:39;99398.31;;;33.10;42.32
35908;BME280;22003;50.320;8.054;2022-08-25T15:11:25;99401.47;;;33.73;42.31
35908;BME280;22003;50.320;8.054;2022-08-25T15:13:50;99358.44;;;33.38;42.11
35908;BME280;22003;50.320;8.054;2022-08-25T15:16:41;99400.41;;;33.64;42.93
35908;BME280;22003;50.320;8.054;2022-08-25T15:19:09;99393.84;;;33.65;41.79
35908;BME280;22003;50.320;8.054;2022-08-25T15:21:36;99401.31;;;33.44;43.34
35908;BME280;22003;50.320;8.054;2022-08-25T15:24:05;99309.63;;;32.23;42.45
35908;BME280;22003;50.320;8.054;2022-08-25T15:26:37;99385.69;;;33.04;42.28
35908;BME280;22003;50.320;8.054;2022-08-25T15:29:04;99386.47;;;32.84;42.05
35908;BME280;22003;50.320;8.054;2022-08-25T15:31:30;99394.16;;;32.67;43.51
35908;BME280;22003;50.320;8.054;2022-08-25T15:33:55;99375.97;;;32.30;42.83
35908;BME280;22003;50.320;8.054;2022-08-25T15:36:23;99384.28;;;32.61;43.29
35908;BME280;22003;50.320;8.054;2022-08-25T15:38:48;99345.91;;;32.66;42.28
35908;BME280;22003;50.320;8.054;2022-08-25T15:41:14;99357.94;;;32.65;42.74
35908;BME280;22003;50.320;8.054;2022-08-25T15:43:39;99381.25;;;32.57;42.85
35908;BME280;22003;50.320;8.054;2022-08-25T15:46:07;99379.09;;;32.90;42.59
35908;BME280;22003;50.320;8.054;2022-08-25T15:48:33;99380.44;;;32.67;42.59
35908;BME280;22003;50.320;8.054;2022-08-25T15:50:59;99373.63;;;32.90;43.18
35908;BME280;22003;50.320;8.054;2022-08-25T15:53:26;99382.63;;;32.44;43.94
35908;BME280;22003;50.320;8.054;2022-08-25T15:55:52;99331.63;;;32.38;43.29
35908;BME280;22003;50.320;8.054;2022-08-25T15:58:19;99326.16;;;32.43;42.98
35908;BME280;22003;50.320;8.054;2022-08-25T16:00:45;99369.19;;;32.78;42.86
35908;BME280;22003;50.320;8.054;2022-08-25T16:03:11;99370.88;;;33.05;42.62
35908;BME280;22003;50.320;8.054;2022-08-25T16:05:39;99367.81;;;33.32;42.06
35908;BME280;22003;50.320;8.054;2022-08-25T16:08:06;99374.97;;;33.18;42.55
35908;BME280;22003;50.320;8.054;2022-08-25T16:10:33;99261.41;;;32.27;42.86
35908;BME280;22003;50.320;8.054;2022-08-25T16:12:58;99362.34;;;33.01;42.22
35908;BME280;22003;50.320;8.054;2022-08-25T16:15:24;99365.88;;;33.27;41.69
35908;BME280;22003;50.320;8.054;2022-08-25T16:17:49;99362.34;;;32.91;41.49
35908;BME280;22003;50.320;8.054;2022-08-25T16:20:15;99359.34;;;32.88;41.43
35908;BME280;22003;50.320;8.054;2022-08-25T16:22:41;99350.28;;;32.51;41.81
35908;BME280;22003;50.320;8.054;2022-08-25T16:25:07;99358.78;;;32.50;42.79
35908;BME280;22003;50.320;8.054;2022-08-25T16:27:34;99357.38;;;32.52;42.30
35908;BME280;22003;50.320;8.054;2022-08-25T16:30:00;99352.91;;;32.00;43.07
35908;BME280;22003;50.320;8.054;2022-08-25T16:32:26;99359.59;;;32.50;44.03
35908;BME280;22003;50.320;8.054;2022-08-25T16:34:51;99356.31;;;32.38;41.66
35908;BME280;22003;50.320;8.054;2022-08-25T16:37:16;99357.41;;;32.63;43.06
35908;BME280;22003;50.320;8.054;2022-08-25T16:39:41;99350.81;;;32.74;42.71
35908;BME280;22003;50.320;8.054;2022-08-25T16:42:09;99339.84;;;32.43;43.55
35908;BME280;22003;50.320;8.054;2022-08-25T16:44:35;99350.81;;;32.38;43.09
35908;BME280;22003;50.320;8.054;2022-08-25T16:47:01;99301.91;;;31.89;42.30
35908;BME280;22003;50.320;8.054;2022-08-25T16:49:26;99353.50;;;32.33;44.16
35908;BME280;22003;50.320;8.054;2022-08-25T16:51:52;99322.56;;;32.58;41.49
35908;BME280;22003;50.320;8.054;2022-08-25T16:54:17;99347.81;;;32.65;41.88
35908;BME280;22003;50.320;8.054;2022-08-25T16:57:01;99349.97;;;33.19;41.02
35908;BME280;22003;50.320;8.054;2022-08-25T16:59:27;99299.72;;;33.24;40.10
35908;BME280;22003;50.320;8.054;2022-08-25T17:01:52;99324.41;;;33.34;40.16
35908;BME280;22003;50.320;8.054;2022-08-25T17:04:18;99305.72;;;33.41;40.16
35908;BME280;22003;50.320;8.054;2022-08-25T17:06:44;99354.13;;;33.97;39.92
35908;BME280;22003;50.320;8.054;2022-08-25T17:09:11;99357.44;;;33.99;39.62
35908;BME280;22003;50.320;8.054;2022-08-25T17:11:44;99355.47;;;33.19;40.45
35908;BME280;22003;50.320;8.054;2022-08-25T17:14:12;99359.06;;;32.94;40.45
35908;BME280;22003;50.320;8.054;2022-08-25T17:16:37;99354.91;;;33.32;40.21
35908;BME280;22003;50.320;8.054;2022-08-25T17:19:04;99356.59;;;33.03;40.63
35908;BME280;22003;50.320;8.054;2022-08-25T17:21:32;99354.94;;;33.12;40.61
35908;BME280;22003;50.320;8.054;2022-08-25T17:23:58;99350.81;;;32.69;41.15
35908;BME280;22003;50.320;8.054;2022-08-25T17:26:25;99329.97;;;32.42;41.29
35908;BME280;22003;50.320;8.054;2022-08-25T17:28:51;99357.88;;;31.51;43.73
35908;BME280;22003;50.320;8.054;2022-08-25T17:31:17;99359.34;;;30.30;44.80
35908;BME280;22003;50.320;8.054;2022-08-25T17:33:43;99362.63;;;30.27;45.34
35908;BME280;22003;50.320;8.054;2022-08-25T17:36:09;99353.19;;;29.69;45.71
35908;BME280;22003;50.320;8.054;2022-08-25T17:38:35;99372.63;;;29.94;45.43
35908;BME280;22003;50.320;8.054;2022-08-25T17:41:02;99361.81;;;30.05;46.32
35908;BME280;22003;50.320;8.054;2022-08-25T17:43:32;99361.25;;;29.42;46.48
35908;BME280;22003;50.320;8.054;2022-08-25T17:45:57;99330.16;;;29.21;48.54
35908;BME280;22003;50.320;8.054;2022-08-25T17:48:24;99360.31;;;28.81;48.00
35908;BME280;22003;50.320;8.054;2022-08-25T17:50:50;99361.50;;;27.82;51.93
35908;BME280;22003;50.320;8.054;2022-08-25T17:53:16;99372.06;;;27.55;52.40
35908;BME280;22003;50.320;8.054;2022-08-25T17:55:42;99369.47;;;27.37;53.14
35908;BME280;22003;50.320;8.054;2022-08-25T17:58:11;99370.66;;;27.29;53.31
35908;BME280;22003;50.320;8.054;2022-08-25T18:00:37;99309.28;;;26.98;52.14
35908;BME280;22003;50.320;8.054;2022-08-25T18:03:03;99371.03;;;27.45;51.97
35908;BME280;22003;50.320;8.054;2022-08-25T18:05:30;99372.53;;;27.52;51.75
35908;BME280;22003;50.320;8.054;2022-08-25T18:07:56;99372.09;;;27.08;51.81
35908;BME280;22003;50.320;8.054;2022-08-25T18:10:22;99369.63;;;27.19;51.75
35908;BME280;22003;50.320;8.054;2022-08-25T18:12:47;99373.28;;;27.13;51.91
35908;BME280;22003;50.320;8.054;2022-08-25T18:15:13;99384.13;;;26.89;52.28
35908;BME280;22003;50.320;8.054;2022-08-25T18:17:39;99375.47;;;27.04;51.81
35908;BME280;22003;50.320;8.054;2022-08-25T18:20:07;99373.03;;;27.14;52.10
35908;BME280;22003;50.320;8.054;2022-08-25T18:22:34;99378.06;;;26.87;52.43
35908;BME280;22003;50.320;8.054;2022-08-25T18:25:01;99374.41;;;26.81;52.94
35908;BME280;22003;50.320;8.054;2022-08-25T18:27:27;99382.09;;;26.73;53.43
35908;BME280;22003;50.320;8.054;2022-08-25T18:29:54;99370.44;;;26.54;53.91
35908;BME280;22003;50.320;8.054;2022-08-25T18:32:20;99332.19;;;26.25;54.24
35908;BME280;22003;50.320;8.054;2022-08-25T18:34:45;99381.72;;;26.69;53.29
35908;BME280;22003;50.320;8.054;2022-08-25T18:37:10;99340.16;;;26.09;53.63
35908;BME280;22003;50.320;8.054;2022-08-25T18:39:54;99380.81;;;26.15;54.12
35908;BME280;22003;50.320;8.054;2022-08-25T18:42:38;99391.72;;;25.78;55.17